createdAt,value
2022-10-03T00:01:17.338Z,2.97
2022-10-03T00:03:49.936Z,2.80
2022-10-03T00:06:32.719Z,2.95
2022-10-03T00:09:20.587Z,3.55
2022-10-03T00:12:08.095Z,3.55
2022-10-03T00:14:41.178Z,3.20
2022-10-03T00:17:26.082Z,2.72
2022-10-03T00:20:04.888Z,3.10
2022-10-03T00:22:49.671Z,4.03
2022-10-03T00:25:25.353Z,2.85
2022-10-03T00:28:24.606Z,2.95
2022-10-03T00:31:17.827Z,4.35
2022-10-03T00:34:02.606Z,3.17
2022-10-03T00:36:50.567Z,2.75
2022-10-03T00:39:29.595Z,2.72
2022-10-03T00:41:56.272Z,3.22
2022-10-03T00:44:38.114Z,3.95
2022-10-03T00:47:17.141Z,2.63
2022-10-03T00:50:10.417Z,2.88
2022-10-03T00:53:01.852Z,2.88
2022-10-03T00:55:42.102Z,3.03
2022-10-03T00:58:44.056Z,2.58
2022-10-03T01:01:23.885Z,2.85
2022-10-03T01:04:16.782Z,2.90
2022-10-03T01:06:56.719Z,3.60
2022-10-03T01:09:41.627Z,2.90
2022-10-03T01:12:37.409Z,3.00
2022-10-03T01:15:10.724Z,3.08
2022-10-03T01:17:40.693Z,2.92
2022-10-03T01:20:18.392Z,3.40
2022-10-03T01:23:22.689Z,3.00
2022-10-03T01:25:59.430Z,3.38
2022-10-03T01:29:09.877Z,3.80
2022-10-03T01:31:46.895Z,2.80
2022-10-03T01:34:26.050Z,2.78
2022-10-03T01:37:17.741Z,3.03
2022-10-03T01:39:53.150Z,2.92
2022-10-03T01:42:44.979Z,2.80
2022-10-03T01:45:27.074Z,3.28
2022-10-03T01:48:12.809Z,2.95
2022-10-03T01:51:17.074Z,2.95
2022-10-03T01:53:58.903Z,2.88
2022-10-03T01:56:35.347Z,2.90
2022-10-03T01:59:09.024Z,3.05
2022-10-03T02:01:47.962Z,2.88
2022-10-03T02:04:48.273Z,3.47
2022-10-03T02:07:26.129Z,3.17
2022-10-03T02:10:10.914Z,2.60
2022-10-03T02:12:49.739Z,2.47
2022-10-03T02:15:28.083Z,3.25
2022-10-03T02:18:02.693Z,3.03
2022-10-03T02:20:47.450Z,3.35
2022-10-03T02:23:42.121Z,2.83
2022-10-03T02:26:29.665Z,3.45
2022-10-03T02:29:46.918Z,3.35
2022-10-03T02:32:50.837Z,3.17
2022-10-03T02:35:49.068Z,2.78
2022-10-03T02:38:39.066Z,2.78
2022-10-03T02:41:34.292Z,2.83
2022-10-03T02:44:38.831Z,2.80
2022-10-03T02:47:48.662Z,2.72
2022-10-03T02:50:52.699Z,3.15
2022-10-03T02:53:57.024Z,2.38
2022-10-03T02:56:56.042Z,3.13
2022-10-03T02:59:44.034Z,3.10
2022-10-03T03:02:35.723Z,2.80
2022-10-03T03:05:11.314Z,3.30
2022-10-03T03:07:49.971Z,2.72
2022-10-03T03:10:31.375Z,2.38
2022-10-03T03:13:36.785Z,2.75
2022-10-03T03:16:12.747Z,2.70
2022-10-03T03:18:50.541Z,3.17
2022-10-03T03:21:42.266Z,2.83
2022-10-03T03:24:57.494Z,3.10
2022-10-03T03:27:47.146Z,2.92
2022-10-03T03:30:19.334Z,2.70
2022-10-03T03:32:56.302Z,3.30
2022-10-03T03:35:47.925Z,3.55
2022-10-03T03:38:36.014Z,2.83
2022-10-03T03:41:34.723Z,2.55
2022-10-03T03:44:20.333Z,2.90
2022-10-03T03:46:47.615Z,2.95
2022-10-03T03:49:43.704Z,2.88
2022-10-03T03:52:23.146Z,3.00
2022-10-03T03:54:55.801Z,2.88
2022-10-03T03:58:08.997Z,2.95
2022-10-03T04:00:47.667Z,2.97
2022-10-03T04:03:43.276Z,2.83
2022-10-03T04:06:26.106Z,2.45
2022-10-03T04:09:29.414Z,2.88
2022-10-03T04:12:10.143Z,2.80
2022-10-03T04:15:04.002Z,2.83
2022-10-03T04:18:14.470Z,3.35
2022-10-03T04:21:00.615Z,2.65
2022-10-03T04:23:42.791Z,3.17
2022-10-03T04:26:51.905Z,3.20
2022-10-03T04:29:30.526Z,3.35
2022-10-03T04:32:21.352Z,2.92
2022-10-03T04:35:09.862Z,2.85
2022-10-03T04:37:48.710Z,3.47
2022-10-03T04:40:50.859Z,2.83
2022-10-03T04:43:43.703Z,3.05
2022-10-03T04:46:30.317Z,3.60
2022-10-03T04:48:56.931Z,3.15
2022-10-03T04:51:52.081Z,3.20
2022-10-03T04:55:00.238Z,3.55
2022-10-03T04:57:47.388Z,3.33
2022-10-03T05:00:28.306Z,3.05
2022-10-03T05:03:15.226Z,3.33
2022-10-03T05:06:24.188Z,4.43
2022-10-03T05:09:13.440Z,4.70
2022-10-03T05:11:54.182Z,4.93
2022-10-03T05:14:48.527Z,4.93
2022-10-03T05:17:28.315Z,4.75
2022-10-03T05:20:42.575Z,5.97
2022-10-03T05:23:44.997Z,4.53
2022-10-03T05:26:43.998Z,4.75
2022-10-03T05:29:44.080Z,6.00
2022-10-03T05:32:26.433Z,6.32
2022-10-03T05:34:56.110Z,5.75
2022-10-03T05:40:18.942Z,6.60
2022-10-03T05:42:52.511Z,6.57
2022-10-03T05:45:42.418Z,6.65
2022-10-03T05:48:23.061Z,7.43
2022-10-03T05:51:17.298Z,6.22
2022-10-03T05:53:46.782Z,7.75
2022-10-03T05:56:41.058Z,7.35
2022-10-03T05:59:26.249Z,7.82
2022-10-03T06:02:13.953Z,7.78
2022-10-03T06:04:56.737Z,8.70
2022-10-03T06:07:30.805Z,7.53
2022-10-03T06:10:04.511Z,8.48
2022-10-03T06:12:59.398Z,9.70
2022-10-03T06:15:52.090Z,8.48
2022-10-03T06:18:32.229Z,7.82
2022-10-03T06:21:25.981Z,6.93
2022-10-03T06:24:25.306Z,9.23
2022-10-03T06:27:42.782Z,7.60
2022-10-03T06:30:36.999Z,7.22
2022-10-03T06:33:37.336Z,7.47
2022-10-03T06:36:26.044Z,9.00
2022-10-03T06:39:30.466Z,8.83
2022-10-03T06:42:12.319Z,8.35
2022-10-03T06:45:26.470Z,7.85
2022-10-03T06:48:19.536Z,9.90
2022-10-03T06:51:04.421Z,8.93
2022-10-03T06:53:30.975Z,9.55
2022-10-03T06:56:19.499Z,9.70
2022-10-03T06:59:26.654Z,8.70
2022-10-03T07:02:36.042Z,9.90
2022-10-03T07:05:41.245Z,9.48
2022-10-03T07:08:29.900Z,8.80
2022-10-03T07:11:28.616Z,9.38
2022-10-03T07:14:17.039Z,8.87
2022-10-03T07:17:05.521Z,9.10
2022-10-03T07:19:47.932Z,9.77
2022-10-03T07:22:42.563Z,9.00
2022-10-03T07:25:59.881Z,8.80
2022-10-03T07:28:58.364Z,9.43
2022-10-03T07:31:54.614Z,7.85
2022-10-03T07:34:40.783Z,8.07
2022-10-03T07:37:36.357Z,8.57
2022-10-03T07:41:05.102Z,10.00
2022-10-03T07:43:34.820Z,8.70
2022-10-03T07:49:08.315Z,8.20
2022-10-03T07:51:45.139Z,9.18
2022-10-03T07:54:28.025Z,10.05
2022-10-03T07:57:16.732Z,9.20
2022-10-03T07:59:58.856Z,10.33
2022-10-03T08:02:47.110Z,8.90
2022-10-03T08:05:32.097Z,9.50
2022-10-03T08:08:13.867Z,9.27
2022-10-03T08:11:18.103Z,9.85
2022-10-03T08:14:11.678Z,9.35
2022-10-03T08:17:12.134Z,9.43
2022-10-03T08:20:06.375Z,9.98
2022-10-03T08:23:04.252Z,9.75
2022-10-03T08:26:08.572Z,10.38
2022-10-03T08:28:48.708Z,10.20
2022-10-03T08:31:42.588Z,10.13
2022-10-03T08:34:31.306Z,10.13
2022-10-03T08:37:25.841Z,10.48
2022-10-03T08:40:04.708Z,10.05
2022-10-03T08:43:09.035Z,10.25
2022-10-03T08:45:42.039Z,9.60
2022-10-03T08:48:33.388Z,9.30
2022-10-03T08:51:29.912Z,11.10
2022-10-03T08:54:05.616Z,9.02
2022-10-03T08:56:56.849Z,9.75
2022-10-03T08:59:26.335Z,9.40
2022-10-03T09:02:30.677Z,9.60
2022-10-03T09:05:19.245Z,9.27
2022-10-03T09:08:08.469Z,9.73
2022-10-03T09:11:03.010Z,9.80
2022-10-03T09:13:47.695Z,9.18
2022-10-03T09:16:58.529Z,8.25
2022-10-03T09:19:44.986Z,9.40
2022-10-03T09:22:14.620Z,8.63
2022-10-03T09:27:55.522Z,7.78
2022-10-03T09:30:31.174Z,6.90
2022-10-03T09:33:28.993Z,5.75
2022-10-03T09:36:10.065Z,6.05
2022-10-03T09:39:02.668Z,6.13
2022-10-03T09:41:32.285Z,5.85
2022-10-03T09:44:28.498Z,5.85
2022-10-03T09:47:22.889Z,4.43
2022-10-03T09:50:19.145Z,3.90
2022-10-03T09:53:02.487Z,4.13
2022-10-03T09:56:01.683Z,4.30
2022-10-03T09:58:51.335Z,3.58
2022-10-03T10:01:22.097Z,2.90
2022-10-03T10:04:50.276Z,3.58
2022-10-03T10:07:37.749Z,3.30
2022-10-03T10:10:35.428Z,3.25
2022-10-03T10:13:08.022Z,3.30
2022-10-03T10:15:56.227Z,2.90
2022-10-03T10:18:28.972Z,2.28
2022-10-03T10:21:27.637Z,2.78
2022-10-03T10:24:22.273Z,2.77
2022-10-03T10:27:28.250Z,2.65
2022-10-03T10:30:09.907Z,2.58
2022-10-03T10:33:15.800Z,3.17
2022-10-03T10:36:18.379Z,1.83
2022-10-03T10:39:22.949Z,2.63
2022-10-03T10:42:27.116Z,1.88
2022-10-03T10:45:12.182Z,1.75
2022-10-03T10:47:51.735Z,1.77
2022-10-03T10:53:09.336Z,1.40
2022-10-03T10:55:54.665Z,1.70
2022-10-03T10:58:46.034Z,2.00
2022-10-03T11:01:46.870Z,2.20
2022-10-03T11:04:35.058Z,1.98
2022-10-03T11:07:34.108Z,2.25
2022-10-03T11:10:00.574Z,2.10
2022-10-03T11:12:45.737Z,1.60
2022-10-03T11:15:37.194Z,2.47
2022-10-03T11:18:22.679Z,2.05
2022-10-03T11:21:07.956Z,1.70
2022-10-03T11:23:53.277Z,1.60
2022-10-03T11:26:54.979Z,1.80
2022-10-03T11:29:43.506Z,2.20
2022-10-03T11:32:31.551Z,1.87
2022-10-03T11:35:27.090Z,1.58
2022-10-03T11:38:16.295Z,1.40
2022-10-03T11:40:55.099Z,1.50
2022-10-03T11:43:45.135Z,1.63
2022-10-03T11:46:32.830Z,1.50
2022-10-03T11:49:41.305Z,1.23
2022-10-03T11:52:20.030Z,1.30
2022-10-03T11:54:50.667Z,3.05
2022-10-03T11:57:35.640Z,1.85
2022-10-03T12:00:05.656Z,1.33
2022-10-03T12:03:10.656Z,2.03
2022-10-03T12:06:17.418Z,1.30
2022-10-03T12:09:19.199Z,1.10
2022-10-03T12:11:58.969Z,1.30
2022-10-03T12:14:25.446Z,1.30
2022-10-03T12:17:10.875Z,1.45
2022-10-03T12:19:53.440Z,1.50
2022-10-03T12:22:42.018Z,1.23
2022-10-03T12:25:25.924Z,1.63
2022-10-03T12:27:58.765Z,0.90
2022-10-03T12:30:31.148Z,1.10
2022-10-03T12:33:17.028Z,1.00
2022-10-03T12:35:50.655Z,1.55
2022-10-03T12:38:41.283Z,1.30
2022-10-03T12:41:25.696Z,1.77
2022-10-03T12:44:29.831Z,1.30
2022-10-03T12:47:14.465Z,1.58
2022-10-03T12:49:53.617Z,1.20
2022-10-03T12:52:29.502Z,1.30
2022-10-03T12:55:02.123Z,1.00
2022-10-03T12:57:38.073Z,0.98
2022-10-03T13:00:14.199Z,1.20
2022-10-03T13:02:48.754Z,1.27
2022-10-03T13:05:23.910Z,1.30
2022-10-03T13:08:06.689Z,1.30
2022-10-03T13:10:45.596Z,1.10
2022-10-03T13:13:15.630Z,1.20
2022-10-03T13:16:04.420Z,1.08
2022-10-03T13:18:50.959Z,1.40
2022-10-03T13:21:45.808Z,1.23
2022-10-03T13:24:34.785Z,1.08
2022-10-03T13:27:32.306Z,1.67
2022-10-03T13:30:07.038Z,1.25
2022-10-03T13:32:44.696Z,1.00
2022-10-03T13:35:44.011Z,1.08
2022-10-03T13:40:43.590Z,1.48
2022-10-03T13:43:15.298Z,2.40
2022-10-03T13:45:47.519Z,1.80
2022-10-03T13:48:21.242Z,1.15
2022-10-03T13:50:47.726Z,1.25
2022-10-03T13:53:53.426Z,1.40
2022-10-03T13:56:42.748Z,1.33
2022-10-03T13:59:25.258Z,1.65
2022-10-03T14:02:10.300Z,1.40
2022-10-03T14:04:46.798Z,1.45
2022-10-03T14:07:35.515Z,1.50
2022-10-03T14:10:14.673Z,1.50
2022-10-03T14:12:56.048Z,1.40
2022-10-03T14:15:47.593Z,1.50
2022-10-03T14:18:52.382Z,2.20
2022-10-03T14:21:48.393Z,1.25
2022-10-03T14:24:20.335Z,1.50
2022-10-03T14:27:05.002Z,1.50
2022-10-03T14:29:53.384Z,1.00
2022-10-03T14:32:48.463Z,1.20
2022-10-03T14:35:50.382Z,1.50
2022-10-03T14:38:57.275Z,1.40
2022-10-03T14:41:32.847Z,1.40
2022-10-03T14:44:13.819Z,1.52
2022-10-03T14:46:48.965Z,1.25
2022-10-03T14:49:52.266Z,1.30
2022-10-03T14:52:45.489Z,1.63
2022-10-03T14:55:32.407Z,1.90
2022-10-03T14:58:16.841Z,0.85
2022-10-03T15:00:47.604Z,1.70
2022-10-03T15:03:17.042Z,1.40
2022-10-03T15:08:33.975Z,0.98
2022-10-03T15:11:01.511Z,1.50
2022-10-03T15:13:32.468Z,1.58
2022-10-03T15:16:01.957Z,1.45
2022-10-03T15:20:57.517Z,1.52
2022-10-03T15:23:53.783Z,1.33
2022-10-03T15:26:24.688Z,1.20
2022-10-03T15:28:53.888Z,2.17
2022-10-03T15:31:33.194Z,1.90
2022-10-03T15:34:02.085Z,1.60
2022-10-03T15:36:38.518Z,1.70
2022-10-03T15:39:15.125Z,1.80
2022-10-03T15:42:06.288Z,1.85
2022-10-03T15:44:39.462Z,1.63
2022-10-03T15:47:13.383Z,1.48
2022-10-03T15:49:57.439Z,1.58
2022-10-03T15:52:40.165Z,1.20
2022-10-03T15:55:15.675Z,1.00
2022-10-03T15:57:49.550Z,1.35
2022-10-03T16:00:28.287Z,1.20
2022-10-03T16:03:08.340Z,1.45
2022-10-03T16:05:36.844Z,1.25
2022-10-03T16:08:09.787Z,0.88
2022-10-03T16:10:45.869Z,1.85
2022-10-03T16:13:35.338Z,1.38
2022-10-03T16:18:48.428Z,1.25
2022-10-03T16:21:37.585Z,1.10
2022-10-03T16:24:07.563Z,1.13
2022-10-03T16:26:47.223Z,1.33
2022-10-03T16:29:25.236Z,1.35
2022-10-03T16:31:58.312Z,1.70
2022-10-03T16:34:27.497Z,1.50
2022-10-03T16:36:55.126Z,1.63
2022-10-03T16:39:29.903Z,1.30
2022-10-03T16:41:56.915Z,1.17
2022-10-03T16:44:29.049Z,1.30
2022-10-03T16:47:01.961Z,1.23
2022-10-03T16:49:54.685Z,1.00
2022-10-03T16:52:29.275Z,1.33
2022-10-03T16:55:03.405Z,1.45
2022-10-03T16:57:39.992Z,2.05
2022-10-03T17:00:15.917Z,1.77
2022-10-03T17:02:43.101Z,2.08
2022-10-03T17:05:14.943Z,1.70
2022-10-03T17:07:50.704Z,1.80
2022-10-03T17:10:39.709Z,1.98
2022-10-03T17:13:16.470Z,1.95
2022-10-03T17:15:57.196Z,1.75
2022-10-03T17:18:28.672Z,1.75
2022-10-03T17:21:06.249Z,3.15
2022-10-03T17:23:53.017Z,1.40
2022-10-03T17:26:33.299Z,1.90
2022-10-03T17:29:05.858Z,1.35
2022-10-03T17:31:45.797Z,2.10
2022-10-03T17:34:21.182Z,2.00
2022-10-03T17:37:19.223Z,1.95
2022-10-03T17:40:18.023Z,2.00
2022-10-03T17:42:51.335Z,1.90
2022-10-03T17:45:42.276Z,2.42
2022-10-03T17:48:25.177Z,2.22
2022-10-03T17:51:19.590Z,3.28
2022-10-03T17:53:57.314Z,5.15
2022-10-03T17:56:26.046Z,17.27
2022-10-03T17:59:13.566Z,22.15
2022-10-03T18:01:44.352Z,25.20
2022-10-03T18:04:18.730Z,21.75
2022-10-03T18:06:56.570Z,15.45
2022-10-03T18:09:31.171Z,14.18
2022-10-03T18:12:36.166Z,11.77
2022-10-03T18:15:22.444Z,10.48
2022-10-03T18:17:49.002Z,9.82
2022-10-03T18:20:40.579Z,11.45
2022-10-03T18:23:11.935Z,13.55
2022-10-03T18:26:20.687Z,11.57
2022-10-03T18:29:13.458Z,8.30
2022-10-03T18:31:45.564Z,6.97
2022-10-03T18:34:34.554Z,6.60
2022-10-03T18:37:16.819Z,5.95
2022-10-03T18:39:44.703Z,7.72
2022-10-03T18:42:14.135Z,6.60
2022-10-03T18:44:45.006Z,5.28
2022-10-03T18:47:27.586Z,5.53
2022-10-03T18:50:12.919Z,5.63
2022-10-03T18:52:52.368Z,5.05
2022-10-03T18:58:17.677Z,4.03
2022-10-03T19:01:14.136Z,4.40
2022-10-03T19:03:48.588Z,5.20
2022-10-03T19:06:29.577Z,4.63
2022-10-03T19:09:00.159Z,6.70
2022-10-03T19:11:39.577Z,5.97
2022-10-03T19:16:53.460Z,7.60
2022-10-03T19:19:47.073Z,7.63
2022-10-03T19:22:16.913Z,9.10
2022-10-03T19:25:03.316Z,9.27
2022-10-03T19:27:47.268Z,9.30
2022-10-03T19:30:25.922Z,8.73
2022-10-03T19:32:57.076Z,9.57
2022-10-03T19:35:24.962Z,9.15
2022-10-03T19:38:04.198Z,9.82
2022-10-03T19:40:35.330Z,9.13
2022-10-03T19:43:34.291Z,9.38
2022-10-03T19:46:06.895Z,10.23
2022-10-03T19:48:35.596Z,9.02
2022-10-03T19:51:20.571Z,9.50
2022-10-03T19:53:52.008Z,9.70
2022-10-03T19:56:21.213Z,8.68
2022-10-03T19:59:03.949Z,9.18
2022-10-03T20:01:48.149Z,8.55
2022-10-03T20:04:20.102Z,9.52
2022-10-03T20:06:49.897Z,9.48
2022-10-03T20:09:27.121Z,10.00
2022-10-03T20:12:01.766Z,9.90
2022-10-03T20:14:36.447Z,10.27
2022-10-03T20:17:15.602Z,11.13
2022-10-03T20:19:54.415Z,12.55
2022-10-03T20:22:25.147Z,11.77
2022-10-03T20:24:52.245Z,13.18
2022-10-03T20:27:37.162Z,13.75
2022-10-03T20:30:38.205Z,15.10
2022-10-03T20:33:06.116Z,16.55
2022-10-03T20:35:56.908Z,17.90
2022-10-03T20:38:47.509Z,16.05
2022-10-03T20:41:21.756Z,16.17
2022-10-03T20:44:28.241Z,15.07
2022-10-03T20:47:11.425Z,15.98
2022-10-03T20:49:42.126Z,16.30
2022-10-03T20:52:20.782Z,14.60
2022-10-03T20:54:47.639Z,14.65
2022-10-03T20:57:17.221Z,14.60
2022-10-03T20:59:56.913Z,12.93
2022-10-03T21:02:36.951Z,13.68
2022-10-03T21:05:22.676Z,14.73
2022-10-03T21:07:57.827Z,14.05
2022-10-03T21:10:24.483Z,13.82
2022-10-03T21:13:01.611Z,13.10
2022-10-03T21:15:47.725Z,13.63
2022-10-03T21:18:40.722Z,12.88
2022-10-03T21:21:19.448Z,13.20
2022-10-03T21:24:00.967Z,13.83
2022-10-03T21:26:31.554Z,14.30
2022-10-03T21:29:25.212Z,14.73
2022-10-03T21:32:25.973Z,16.05
2022-10-03T21:35:14.476Z,16.80
2022-10-03T21:37:56.933Z,17.55
2022-10-03T21:40:48.799Z,16.60
2022-10-03T21:43:30.612Z,13.27
2022-10-03T21:46:19.677Z,13.38
2022-10-03T21:49:14.328Z,10.52
2022-10-03T21:51:47.293Z,9.65
2022-10-03T21:54:25.996Z,9.00
2022-10-03T21:57:12.808Z,7.50
2022-10-03T21:59:57.932Z,8.40
2022-10-03T22:02:45.764Z,7.78
2022-10-03T22:05:32.905Z,7.80
2022-10-03T22:07:59.641Z,8.30
2022-10-03T22:10:36.355Z,7.53
2022-10-03T22:13:09.252Z,7.57
2022-10-03T22:16:18.401Z,7.13
2022-10-03T22:19:16.000Z,8.18
2022-10-03T22:22:07.636Z,6.30
2022-10-03T22:24:34.278Z,5.97
2022-10-03T22:27:12.530Z,6.07
2022-10-03T22:30:10.824Z,7.60
2022-10-03T22:32:48.175Z,9.15
2022-10-03T22:35:29.641Z,7.03
2022-10-03T22:37:57.008Z,6.65
2022-10-03T22:40:25.486Z,6.75
2022-10-03T22:42:56.523Z,6.00
2022-10-03T22:45:29.198Z,6.20
2022-10-03T22:47:59.501Z,5.03
2022-10-03T22:50:31.511Z,5.55
2022-10-03T22:53:00.557Z,5.68
2022-10-03T22:55:28.179Z,5.18
2022-10-03T22:57:56.130Z,4.93
2022-10-03T23:00:30.238Z,4.90
2022-10-03T23:03:06.228Z,5.22
2022-10-03T23:06:13.033Z,5.32
2022-10-03T23:08:50.780Z,4.60
2022-10-03T23:11:24.989Z,5.65
2022-10-03T23:13:52.429Z,4.85
2022-10-03T23:16:40.434Z,6.00
2022-10-03T23:19:26.066Z,5.78
2022-10-03T23:21:55.797Z,5.93
2022-10-03T23:24:29.080Z,6.53
2022-10-03T23:27:14.384Z,6.10
2022-10-03T23:29:41.247Z,6.32
2022-10-03T23:32:09.798Z,6.68
2022-10-03T23:34:36.368Z,5.72
2022-10-03T23:37:15.064Z,6.47
2022-10-03T23:40:07.331Z,6.77
2022-10-03T23:42:45.136Z,6.18
2022-10-03T23:45:17.058Z,6.25
2022-10-03T23:47:56.615Z,6.18
2022-10-03T23:50:26.984Z,6.40
2022-10-03T23:52:57.125Z,6.70
2022-10-03T23:55:29.805Z,7.20
2022-10-03T23:57:56.926Z,6.63
